MiSS Toni — WDE7906 — position and weather

sailwx.info

Track history (hours):
 
Tides and Currents Weather Stations Pressure Air Temp Water Temp Dewpoint Dewpoint Depression Visibility Wind Speed Wind Dir Waves Ship Positions

MiSS Toni

Owner: N. R. BROUSSARD LANDING, INC., ABBEVILLE, LA. More information available from US FCC via Universal Licensing System and Coast Guard Vessel Documentation Center.

Last reported at 2018-Jan-08 15:50 UTC. Time now 2018-Apr-25 06:43 UTC.
Position N 29°56' W 092°09'.
Warning: this ship's position is months out of date.

Length 20 m; draft 2 m.

Type: Towing. MMSI: 367001580.

Date/timePositionNaut miles runAvg speedWind from/ knotsBaromVisibWave heightAir tempDewpointWater temp
2018-Jan-08 15:50N 29°56' W 092°09'5 3.2
2018-Jan-08 14:24N 29°52' W 092°08'2 4.8
2018-Jan-08 14:00N 29°50' W 092°08'1 1.6
2018-Jan-08 13:29N 29°49' W 092°08'1 1.8
2018-Jan-08 13:00N 29°48' W 092°08'2 3.6
2018-Jan-08 12:30N 29°47' W 092°09'1 2.1
2018-Jan-08 12:00N 29°47' W 092°10'0 0.0
2018-Jan-07 21:54N 29°47' W 092°11'0 0.0
2018-Jan-07 21:30N 29°47' W 092°11'0 0.0
2018-Jan-07 21:01N 29°47' W 092°11'0 0.0
2018-Jan-07 20:30N 29°47' W 092°11'0 0.0
2018-Jan-07 20:01N 29°47' W 092°11'0 0.0
2018-Jan-07 19:30N 29°47' W 092°11'0 0.0
2018-Jan-07 19:00N 29°47' W 092°11'0 0.0
2018-Jan-07 18:30N 29°47' W 092°11'0 0.0
2018-Jan-07 18:00N 29°47' W 092°11'0 0.0
2018-Jan-07 17:30N 29°47' W 092°11'0 0.0
2018-Jan-07 17:00N 29°47' W 092°11'0 0.0
2018-Jan-07 16:30N 29°47' W 092°11'0 0.0
2018-Jan-07 16:00N 29°47' W 092°11'0 0.0
2018-Jan-07 15:30N 29°47' W 092°11'0 0.0
2018-Jan-07 15:00N 29°47' W 092°11'0 0.0
2018-Jan-07 14:31N 29°47' W 092°11'0 0.0
2018-Jan-07 14:00N 29°47' W 092°11'0 0.0
2018-Jan-07 13:31N 29°47' W 092°11'0 0.0
2018-Jan-07 13:01N 29°47' W 092°11'0 0.0
2018-Jan-07 12:30N 29°47' W 092°11'0 0.0
2018-Jan-07 12:00N 29°47' W 092°11'0 0.0
2018-Jan-07 11:30N 29°47' W 092°11'0 0.0
2018-Jan-07 11:00N 29°47' W 092°11'0 0.0
2018-Jan-07 10:30N 29°47' W 092°11'0 0.0
2018-Jan-07 10:00N 29°47' W 092°11'0 0.0
2018-Jan-07 09:30N 29°47' W 092°11'0 0.0
2018-Jan-07 09:00N 29°47' W 092°11'0 0.0
2018-Jan-07 08:30N 29°47' W 092°11'0 0.0
2018-Jan-07 08:00N 29°47' W 092°11'0 0.0
2018-Jan-07 07:30N 29°47' W 092°11'0 0.0
2018-Jan-07 07:00N 29°47' W 092°11'0 0.0
2018-Jan-07 06:30N 29°47' W 092°11'0 0.0
2018-Jan-07 06:00N 29°47' W 092°11'0 0.0
2018-Jan-07 05:30N 29°47' W 092°11'0 0.0
2018-Jan-07 05:01N 29°47' W 092°11'0 0.0
2018-Jan-07 04:30N 29°47' W 092°11'0 0.0
2018-Jan-07 04:00N 29°47' W 092°11'0 0.0
2018-Jan-07 03:30N 29°47' W 092°11'0 0.0
2018-Jan-07 03:00N 29°47' W 092°11'3 6.1
2018-Jan-07 02:30N 29°45' W 092°07'3 6.8
2018-Jan-07 02:00N 29°43' W 092°05'1 0.2
2018-Jan-06 20:46N 29°43' W 092°04'1 5.4
2018-Jan-06 20:30N 29°43' W 092°05'3 6.6
2018-Jan-06 20:00N 29°46' W 092°08'3 6.7
2018-Jan-06 19:30N 29°47' W 092°11'0 0.3
2018-Jan-06 19:01N 29°47' W 092°11'1 1.1
2018-Jan-06 18:30N 29°47' W 092°11'0 0.0
2018-Jan-06 18:00N 29°47' W 092°11'0 0.0
2018-Jan-06 17:30N 29°47' W 092°11'0 0.0
2018-Jan-06 17:00N 29°47' W 092°11'0 0.0
2018-Jan-06 16:30N 29°47' W 092°11'0 0.0
2018-Jan-06 16:00N 29°47' W 092°11'0 0.0
2018-Jan-06 15:30N 29°47' W 092°11'0 0.0
2018-Jan-06 15:00N 29°47' W 092°11'0 0.0
2018-Jan-06 14:30N 29°47' W 092°11'0 0.0
2018-Jan-06 14:00N 29°47' W 092°11'0 0.0
2018-Jan-06 13:30N 29°47' W 092°11'0 0.0
2018-Jan-06 13:00N 29°47' W 092°11'0 0.0
2018-Jan-06 12:30N 29°47' W 092°11'0 0.0
2018-Jan-05 22:52N 29°47' W 092°11'0 0.0
2018-Jan-05 22:30N 29°47' W 092°11'0 0.7
2018-Jan-05 22:00N 29°47' W 092°10'0 0.2
2018-Jan-05 21:30N 29°47' W 092°10'0 0.0
2018-Jan-05 21:00N 29°47' W 092°10'0 0.0
2018-Jan-05 20:30N 29°47' W 092°10'0 0.0
2018-Jan-05 20:00N 29°47' W 092°10'0 0.3
2018-Jan-05 19:30N 29°47' W 092°10'0 0.1
2018-Jan-05 19:00N 29°47' W 092°10'0 0.0
2018-Jan-05 18:30N 29°47' W 092°10'0 0.0
2018-Jan-05 18:00N 29°47' W 092°10'0 0.1
2018-Jan-05 17:30N 29°47' W 092°10'0 0.4
2018-Jan-05 17:00N 29°47' W 092°10'0 0.1
2018-Jan-05 16:30N 29°47' W 092°11'0 0.5
2018-Jan-05 16:00N 29°47' W 092°10'0 0.2
2018-Jan-05 15:30N 29°47' W 092°10'0 0.0
2018-Jan-05 15:00N 29°47' W 092°10'0 0.0
2018-Jan-05 14:30N 29°47' W 092°10'0 0.7
2018-Jan-05 14:00N 29°47' W 092°11'0 0.0
2018-Jan-05 13:30N 29°47' W 092°11'0 0.0
2018-Jan-05 13:00N 29°47' W 092°11'0 0.0
2018-Jan-05 12:30N 29°47' W 092°11'0 0.0
2018-Jan-05 12:00N 29°47' W 092°11'0 0.0
2018-Jan-05 11:30N 29°47' W 092°11'0 0.0
2018-Jan-05 11:00N 29°47' W 092°11'0 0.0
2018-Jan-05 10:30N 29°47' W 092°11'0 0.0
2018-Jan-05 10:00N 29°47' W 092°11'0 0.0
2018-Jan-05 09:30N 29°47' W 092°11'0 0.0
2018-Jan-05 09:00N 29°47' W 092°11'0 0.0
2018-Jan-05 08:30N 29°47' W 092°11'0 0.0
2018-Jan-05 08:00N 29°47' W 092°11'0 0.0
2018-Jan-05 07:30N 29°47' W 092°11'0 0.0
2018-Jan-05 07:00N 29°47' W 092°11'0 0.0
2018-Jan-05 06:30N 29°47' W 092°11'0 0.0
2018-Jan-05 06:00N 29°47' W 092°11'0 0.0
2018-Jan-05 05:30N 29°47' W 092°11'0 0.0
2018-Jan-05 05:00N 29°47' W 092°11'0 0.0
2018-Jan-05 04:30N 29°47' W 092°11'0 0.0
2018-Jan-05 04:00N 29°47' W 092°11'0 0.0
2018-Jan-05 03:30N 29°47' W 092°11'0 0.0
2018-Jan-05 03:00N 29°47' W 092°11'0 1.0
2018-Jan-05 02:30N 29°47' W 092°10'4 8.2
2018-Jan-05 02:00N 29°48' W 092°06'4 8.3
2018-Jan-05 01:30N 29°49' W 092°01'58 7.0
2018-Jan-04 17:16N 29°34' W 090°57'2 7.6
2018-Jan-04 17:00N 29°33' W 090°55'4 7.5
2018-Jan-04 16:30N 29°32' W 090°51'4 7.6
2018-Jan-04 16:00N 29°32' W 090°46'3 6.8
2018-Jan-04 15:30N 29°34' W 090°43'3 6.7
2018-Jan-04 15:00N 29°31' W 090°43'4 7.4
2018-Jan-04 14:30N 29°27' W 090°43'4 7.3
2018-Jan-04 14:00N 29°23' W 090°44'4 6.5
2018-Jan-04 13:18N 29°19' W 090°43'  
2017-Dec-31 12:34N 29°14' W 090°40'  
Track history (hours):
 
Tides and Currents Weather Stations Pressure Air Temp Water Temp Dewpoint Dewpoint Depression Visibility Wind Speed Wind Dir Waves Ship Positions

MiSS Toni

Owner: N. R. BROUSSARD LANDING, INC., ABBEVILLE, LA. More information available from US FCC via Universal Licensing System and Coast Guard Vessel Documentation Center.

Last reported at 2018-Jan-08 15:50 UTC. Time now 2018-Apr-25 06:43 UTC.
Position N 29°56' W 092°09'.
Warning: this ship's position is months out of date.

Length 20 m; draft 2 m.

Type: Towing. MMSI: 367001580.

Date/timePositionNaut miles runAvg speedWind from/ knotsBaromVisibWave heightAir tempDewpointWater temp
2018-Jan-08 15:50N 29°56' W 092°09'5 3.2
2018-Jan-08 14:24N 29°52' W 092°08'2 4.8
2018-Jan-08 14:00N 29°50' W 092°08'1 1.6
2018-Jan-08 13:29N 29°49' W 092°08'1 1.8
2018-Jan-08 13:00N 29°48' W 092°08'2 3.6
2018-Jan-08 12:30N 29°47' W 092°09'1 2.1
2018-Jan-08 12:00N 29°47' W 092°10'0 0.0
2018-Jan-07 21:54N 29°47' W 092°11'0 0.0
2018-Jan-07 21:30N 29°47' W 092°11'0 0.0
2018-Jan-07 21:01N 29°47' W 092°11'0 0.0
2018-Jan-07 20:30N 29°47' W 092°11'0 0.0
2018-Jan-07 20:01N 29°47' W 092°11'0 0.0
2018-Jan-07 19:30N 29°47' W 092°11'0 0.0
2018-Jan-07 19:00N 29°47' W 092°11'0 0.0
2018-Jan-07 18:30N 29°47' W 092°11'0 0.0
2018-Jan-07 18:00N 29°47' W 092°11'0 0.0
2018-Jan-07 17:30N 29°47' W 092°11'0 0.0
2018-Jan-07 17:00N 29°47' W 092°11'0 0.0
2018-Jan-07 16:30N 29°47' W 092°11'0 0.0
2018-Jan-07 16:00N 29°47' W 092°11'0 0.0
2018-Jan-07 15:30N 29°47' W 092°11'0 0.0
2018-Jan-07 15:00N 29°47' W 092°11'0 0.0
2018-Jan-07 14:31N 29°47' W 092°11'0 0.0
2018-Jan-07 14:00N 29°47' W 092°11'0 0.0
2018-Jan-07 13:31N 29°47' W 092°11'0 0.0
2018-Jan-07 13:01N 29°47' W 092°11'0 0.0
2018-Jan-07 12:30N 29°47' W 092°11'0 0.0
2018-Jan-07 12:00N 29°47' W 092°11'0 0.0
2018-Jan-07 11:30N 29°47' W 092°11'0 0.0
2018-Jan-07 11:00N 29°47' W 092°11'0 0.0
2018-Jan-07 10:30N 29°47' W 092°11'0 0.0
2018-Jan-07 10:00N 29°47' W 092°11'0 0.0
2018-Jan-07 09:30N 29°47' W 092°11'0 0.0
2018-Jan-07 09:00N 29°47' W 092°11'0 0.0
2018-Jan-07 08:30N 29°47' W 092°11'0 0.0
2018-Jan-07 08:00N 29°47' W 092°11'0 0.0
2018-Jan-07 07:30N 29°47' W 092°11'0 0.0
2018-Jan-07 07:00N 29°47' W 092°11'0 0.0
2018-Jan-07 06:30N 29°47' W 092°11'0 0.0
2018-Jan-07 06:00N 29°47' W 092°11'0 0.0
2018-Jan-07 05:30N 29°47' W 092°11'0 0.0
2018-Jan-07 05:01N 29°47' W 092°11'0 0.0
2018-Jan-07 04:30N 29°47' W 092°11'0 0.0
2018-Jan-07 04:00N 29°47' W 092°11'0 0.0
2018-Jan-07 03:30N 29°47' W 092°11'0 0.0
2018-Jan-07 03:00N 29°47' W 092°11'3 6.1
2018-Jan-07 02:30N 29°45' W 092°07'3 6.8
2018-Jan-07 02:00N 29°43' W 092°05'1 0.2
2018-Jan-06 20:46N 29°43' W 092°04'1 5.4
2018-Jan-06 20:30N 29°43' W 092°05'3 6.6
2018-Jan-06 20:00N 29°46' W 092°08'3 6.7
2018-Jan-06 19:30N 29°47' W 092°11'0 0.3
2018-Jan-06 19:01N 29°47' W 092°11'1 1.1
2018-Jan-06 18:30N 29°47' W 092°11'0 0.0
2018-Jan-06 18:00N 29°47' W 092°11'0 0.0
2018-Jan-06 17:30N 29°47' W 092°11'0 0.0
2018-Jan-06 17:00N 29°47' W 092°11'0 0.0
2018-Jan-06 16:30N 29°47' W 092°11'0 0.0
2018-Jan-06 16:00N 29°47' W 092°11'0 0.0
2018-Jan-06 15:30N 29°47' W 092°11'0 0.0
2018-Jan-06 15:00N 29°47' W 092°11'0 0.0
2018-Jan-06 14:30N 29°47' W 092°11'0 0.0
2018-Jan-06 14:00N 29°47' W 092°11'0 0.0
2018-Jan-06 13:30N 29°47' W 092°11'0 0.0
2018-Jan-06 13:00N 29°47' W 092°11'0 0.0
2018-Jan-06 12:30N 29°47' W 092°11'0 0.0
2018-Jan-05 22:52N 29°47' W 092°11'0 0.0
2018-Jan-05 22:30N 29°47' W 092°11'0 0.7
2018-Jan-05 22:00N 29°47' W 092°10'0 0.2
2018-Jan-05 21:30N 29°47' W 092°10'0 0.0
2018-Jan-05 21:00N 29°47' W 092°10'0 0.0
2018-Jan-05 20:30N 29°47' W 092°10'0 0.0
2018-Jan-05 20:00N 29°47' W 092°10'0 0.3
2018-Jan-05 19:30N 29°47' W 092°10'0 0.1
2018-Jan-05 19:00N 29°47' W 092°10'0 0.0
2018-Jan-05 18:30N 29°47' W 092°10'0 0.0
2018-Jan-05 18:00N 29°47' W 092°10'0 0.1
2018-Jan-05 17:30N 29°47' W 092°10'0 0.4
2018-Jan-05 17:00N 29°47' W 092°10'0 0.1
2018-Jan-05 16:30N 29°47' W 092°11'0 0.5
2018-Jan-05 16:00N 29°47' W 092°10'0 0.2
2018-Jan-05 15:30N 29°47' W 092°10'0 0.0
2018-Jan-05 15:00N 29°47' W 092°10'0 0.0
2018-Jan-05 14:30N 29°47' W 092°10'0 0.7
2018-Jan-05 14:00N 29°47' W 092°11'0 0.0
2018-Jan-05 13:30N 29°47' W 092°11'0 0.0
2018-Jan-05 13:00N 29°47' W 092°11'0 0.0
2018-Jan-05 12:30N 29°47' W 092°11'0 0.0
2018-Jan-05 12:00N 29°47' W 092°11'0 0.0
2018-Jan-05 11:30N 29°47' W 092°11'0 0.0
2018-Jan-05 11:00N 29°47' W 092°11'0 0.0
2018-Jan-05 10:30N 29°47' W 092°11'0 0.0
2018-Jan-05 10:00N 29°47' W 092°11'0 0.0
2018-Jan-05 09:30N 29°47' W 092°11'0 0.0
2018-Jan-05 09:00N 29°47' W 092°11'0 0.0
2018-Jan-05 08:30N 29°47' W 092°11'0 0.0
2018-Jan-05 08:00N 29°47' W 092°11'0 0.0
2018-Jan-05 07:30N 29°47' W 092°11'0 0.0
2018-Jan-05 07:00N 29°47' W 092°11'0 0.0
2018-Jan-05 06:30N 29°47' W 092°11'0 0.0
2018-Jan-05 06:00N 29°47' W 092°11'0 0.0
2018-Jan-05 05:30N 29°47' W 092°11'0 0.0
2018-Jan-05 05:00N 29°47' W 092°11'0 0.0
2018-Jan-05 04:30N 29°47' W 092°11'0 0.0
2018-Jan-05 04:00N 29°47' W 092°11'0 0.0
2018-Jan-05 03:30N 29°47' W 092°11'0 0.0
2018-Jan-05 03:00N 29°47' W 092°11'0 1.0
2018-Jan-05 02:30N 29°47' W 092°10'4 8.2
2018-Jan-05 02:00N 29°48' W 092°06'4 8.3
2018-Jan-05 01:30N 29°49' W 092°01'58 7.0
2018-Jan-04 17:16N 29°34' W 090°57'2 7.6
2018-Jan-04 17:00N 29°33' W 090°55'4 7.5
2018-Jan-04 16:30N 29°32' W 090°51'4 7.6
2018-Jan-04 16:00N 29°32' W 090°46'3 6.8
2018-Jan-04 15:30N 29°34' W 090°43'3 6.7
2018-Jan-04 15:00N 29°31' W 090°43'4 7.4
2018-Jan-04 14:30N 29°27' W 090°43'4 7.3
2018-Jan-04 14:00N 29°23' W 090°44'4 6.5
2018-Jan-04 13:18N 29°19' W 090°43'  
2017-Dec-31 12:34N 29°14' W 090°40'  

Dump ship's entire track history